sensor_id;sensor_type;location;lat;lon;timestamp;pressure;altitude;pressure_sealevel;temperature;humidity
64876;BME280;51369;49.862;9.908;2022-09-09T00:00:53;97908.06;;;15.69;73.84
64876;BME280;51369;49.862;9.908;2022-09-09T00:03:27;97917.53;;;15.63;73.40
64876;BME280;51369;49.862;9.908;2022-09-09T00:06:11;97915.28;;;15.57;73.71
64876;BME280;51369;49.862;9.908;2022-09-09T00:09:10;97915.78;;;15.49;73.33
64876;BME280;51369;49.862;9.908;2022-09-09T00:12:00;97917.94;;;15.44;73.57
64876;BME280;51369;49.862;9.908;2022-09-09T00:14:42;97925.22;;;15.44;73.57
64876;BME280;51369;49.862;9.908;2022-09-09T00:17:16;97923.59;;;15.41;73.92
64876;BME280;51369;49.862;9.908;2022-09-09T00:19:57;97911.19;;;15.37;74.21
64876;BME280;51369;49.862;9.908;2022-09-09T00:22:28;97918.56;;;15.35;74.13
64876;BME280;51369;49.862;9.908;2022-09-09T00:25:02;97911.41;;;15.34;75.03
64876;BME280;51369;49.862;9.908;2022-09-09T00:27:45;97925.66;;;15.38;75.58
64876;BME280;51369;49.862;9.908;2022-09-09T00:32:37;97916.38;;;15.27;77.33
64876;BME280;51369;49.862;9.908;2022-09-09T00:35:16;97908.88;;;15.18;78.17
64876;BME280;51369;49.862;9.908;2022-09-09T00:37:44;97893.72;;;15.14;79.87
64876;BME280;51369;49.862;9.908;2022-09-09T00:40:35;97893.63;;;15.16;81.85
64876;BME280;51369;49.862;9.908;2022-09-09T00:43:28;97895.38;;;15.17;82.71
64876;BME280;51369;49.862;9.908;2022-09-09T00:46:06;97902.44;;;15.19;83.46
64876;BME280;51369;49.862;9.908;2022-09-09T00:51:29;97895.16;;;15.20;84.02
64876;BME280;51369;49.862;9.908;2022-09-09T00:57:07;97888.75;;;15.21;84.57
64876;BME280;51369;49.862;9.908;2022-09-09T00:59:47;97879.81;;;15.19;84.63
64876;BME280;51369;49.862;9.908;2022-09-09T01:02:39;97881.66;;;15.18;84.20
64876;BME280;51369;49.862;9.908;2022-09-09T01:05:10;97876.22;;;15.18;84.53
64876;BME280;51369;49.862;9.908;2022-09-09T01:07:37;97877.09;;;15.19;85.16
64876;BME280;51369;49.862;9.908;2022-09-09T01:10:14;97873.41;;;15.20;85.25
64876;BME280;51369;49.862;9.908;2022-09-09T01:12:46;97884.19;;;15.21;84.76
64876;BME280;51369;49.862;9.908;2022-09-09T01:15:30;97893.41;;;15.19;84.53
64876;BME280;51369;49.862;9.908;2022-09-09T01:18:10;97894.41;;;15.18;84.59
64876;BME280;51369;49.862;9.908;2022-09-09T01:21:07;97894.41;;;15.18;84.05
64876;BME280;51369;49.862;9.908;2022-09-09T01:28:54;97885.06;;;15.22;84.64
64876;BME280;51369;49.862;9.908;2022-09-09T01:31:32;97884.19;;;15.21;84.54
64876;BME280;51369;49.862;9.908;2022-09-09T01:33:58;97889.50;;;15.23;85.08
64876;BME280;51369;49.862;9.908;2022-09-09T01:36:34;97892.44;;;15.20;84.44
64876;BME280;51369;49.862;9.908;2022-09-09T01:39:03;97881.00;;;15.15;84.15
64876;BME280;51369;49.862;9.908;2022-09-09T01:41:30;97888.41;;;15.13;83.74
64876;BME280;51369;49.862;9.908;2022-09-09T01:44:03;97886.56;;;15.13;84.61
64876;BME280;51369;49.862;9.908;2022-09-09T01:46:30;97885.56;;;15.14;84.32
64876;BME280;51369;49.862;9.908;2022-09-09T01:48:58;97892.00;;;15.13;84.67
64876;BME280;51369;49.862;9.908;2022-09-09T01:51:26;97878.50;;;15.12;84.43
64876;BME280;51369;49.862;9.908;2022-09-09T01:53:52;97884.91;;;15.11;84.24
64876;BME280;51369;49.862;9.908;2022-09-09T01:56:29;97884.16;;;15.09;84.75
64876;BME280;51369;49.862;9.908;2022-09-09T02:04:28;97895.78;;;15.11;85.23
64876;BME280;51369;49.862;9.908;2022-09-09T02:06:57;97884.81;;;15.12;85.23
64876;BME280;51369;49.862;9.908;2022-09-09T02:09:26;97892.88;;;15.14;85.11
64876;BME280;51369;49.862;9.908;2022-09-09T02:12:05;97891.88;;;15.15;85.68
64876;BME280;51369;49.862;9.908;2022-09-09T02:14:42;97888.97;;;15.18;85.84
64876;BME280;51369;49.862;9.908;2022-09-09T02:17:10;97893.19;;;15.22;85.61
64876;BME280;51369;49.862;9.908;2022-09-09T02:20:06;97901.16;;;15.25;85.31
64876;BME280;51369;49.862;9.908;2022-09-09T02:22:49;97889.28;;;15.26;84.85
64876;BME280;51369;49.862;9.908;2022-09-09T02:25:20;97888.53;;;15.24;84.98
64876;BME280;51369;49.862;9.908;2022-09-09T02:27:50;97894.94;;;15.23;84.99
64876;BME280;51369;49.862;9.908;2022-09-09T02:30:16;97887.66;;;15.23;85.29
64876;BME280;51369;49.862;9.908;2022-09-09T02:32:58;97895.72;;;15.25;84.94
64876;BME280;51369;49.862;9.908;2022-09-09T02:35:47;97890.28;;;15.25;84.91
64876;BME280;51369;49.862;9.908;2022-09-09T02:38:19;97881.13;;;15.26;84.84
64876;BME280;51369;49.862;9.908;2022-09-09T02:40:55;97893.66;;;15.28;84.91
64876;BME280;51369;49.862;9.908;2022-09-09T02:43:21;97887.22;;;15.29;84.48
64876;BME280;51369;49.862;9.908;2022-09-09T02:46:22;97890.06;;;15.28;84.51
64876;BME280;51369;49.862;9.908;2022-09-09T02:48:58;97883.66;;;15.29;84.41
64876;BME280;51369;49.862;9.908;2022-09-09T02:51:53;97881.78;;;15.29;84.78
64876;BME280;51369;49.862;9.908;2022-09-09T02:54:28;97889.84;;;15.31;84.90
64876;BME280;51369;49.862;9.908;2022-09-09T02:59:34;97880.94;;;15.29;84.81
64876;BME280;51369;49.862;9.908;2022-09-09T03:02:02;97889.09;;;15.29;85.02
64876;BME280;51369;49.862;9.908;2022-09-09T03:04:28;97889.19;;;15.27;85.05
64876;BME280;51369;49.862;9.908;2022-09-09T03:06:57;97888.31;;;15.27;85.50
64876;BME280;51369;49.862;9.908;2022-09-09T03:09:23;97890.94;;;15.28;85.88
64876;BME280;51369;49.862;9.908;2022-09-09T03:11:49;97884.50;;;15.29;86.51
64876;BME280;51369;49.862;9.908;2022-09-09T03:14:16;97896.06;;;15.33;85.85
64876;BME280;51369;49.862;9.908;2022-09-09T03:16:42;97883.31;;;15.34;86.13
64876;BME280;51369;49.862;9.908;2022-09-09T03:19:11;97898.56;;;15.36;85.77
64876;BME280;51369;49.862;9.908;2022-09-09T03:21:37;97899.31;;;15.38;85.79
64876;BME280;51369;49.862;9.908;2022-09-09T03:24:02;97890.19;;;15.39;85.93
64876;BME280;51369;49.862;9.908;2022-09-09T03:26:29;97890.94;;;15.41;86.50
64876;BME280;51369;49.862;9.908;2022-09-09T03:28:56;97892.69;;;15.42;86.41
64876;BME280;51369;49.862;9.908;2022-09-09T03:31:22;97884.53;;;15.42;86.82
64876;BME280;51369;49.862;9.908;2022-09-09T03:33:49;97893.47;;;15.44;86.71
64876;BME280;51369;49.862;9.908;2022-09-09T03:36:16;97887.91;;;15.46;86.22
64876;BME280;51369;49.862;9.908;2022-09-09T03:38:42;97879.63;;;15.47;86.51
64876;BME280;51369;49.862;9.908;2022-09-09T03:41:08;97883.22;;;15.48;85.94
64876;BME280;51369;49.862;9.908;2022-09-09T03:43:34;97878.66;;;15.48;85.69
64876;BME280;51369;49.862;9.908;2022-09-09T03:45:59;97878.56;;;15.50;85.59
64876;BME280;51369;49.862;9.908;2022-09-09T03:48:26;97885.63;;;15.52;85.71
64876;BME280;51369;49.862;9.908;2022-09-09T03:50:54;97882.81;;;15.54;85.59
64876;BME280;51369;49.862;9.908;2022-09-09T03:53:23;97876.59;;;15.52;84.52
64876;BME280;51369;49.862;9.908;2022-09-09T03:55:51;97866.78;;;15.49;84.22
64876;BME280;51369;49.862;9.908;2022-09-09T03:58:22;97872.13;;;15.51;84.45
64876;BME280;51369;49.862;9.908;2022-09-09T04:00:56;97876.69;;;15.50;84.88
64876;BME280;51369;49.862;9.908;2022-09-09T04:03:23;97863.09;;;15.50;85.50
64876;BME280;51369;49.862;9.908;2022-09-09T04:05:51;97866.91;;;15.48;85.57
64876;BME280;51369;49.862;9.908;2022-09-09T04:08:18;97865.28;;;15.45;85.49
64876;BME280;51369;49.862;9.908;2022-09-09T04:10:45;97864.63;;;15.42;85.52
64876;BME280;51369;49.862;9.908;2022-09-09T04:13:16;97862.88;;;15.41;85.71
64876;BME280;51369;49.862;9.908;2022-09-09T04:15:42;97858.53;;;15.38;85.31
64876;BME280;51369;49.862;9.908;2022-09-09T04:18:08;97867.66;;;15.37;85.61
64876;BME280;51369;49.862;9.908;2022-09-09T04:20:34;97859.59;;;15.36;85.59
64876;BME280;51369;49.862;9.908;2022-09-09T04:22:59;97858.75;;;15.35;85.50
64876;BME280;51369;49.862;9.908;2022-09-09T04:25:25;97866.03;;;15.35;86.55
64876;BME280;51369;49.862;9.908;2022-09-09T04:27:54;97871.56;;;15.33;86.46
64876;BME280;51369;49.862;9.908;2022-09-09T04:30:20;97868.84;;;15.33;86.31
64876;BME280;51369;49.862;9.908;2022-09-09T04:32:46;97879.72;;;15.33;86.02
64876;BME280;51369;49.862;9.908;2022-09-09T04:35:12;97880.81;;;15.30;85.86
64876;BME280;51369;49.862;9.908;2022-09-09T04:37:37;97878.97;;;15.31;85.68
64876;BME280;51369;49.862;9.908;2022-09-09T04:40:03;97882.88;;;15.27;85.05
64876;BME280;51369;49.862;9.908;2022-09-09T04:42:35;97881.47;;;15.21;84.80
64876;BME280;51369;49.862;9.908;2022-09-09T04:45:01;97885.25;;;15.19;84.79
64876;BME280;51369;49.862;9.908;2022-09-09T04:47:29;97883.84;;;15.13;85.11
64876;BME280;51369;49.862;9.908;2022-09-09T04:49:54;97880.34;;;15.11;85.25
64876;BME280;51369;49.862;9.908;2022-09-09T04:52:20;97884.91;;;15.11;85.15
64876;BME280;51369;49.862;9.908;2022-09-09T04:54:46;97892.19;;;15.10;85.67
64876;BME280;51369;49.862;9.908;2022-09-09T04:57:12;97890.47;;;15.09;85.54
64876;BME280;51369;49.862;9.908;2022-09-09T04:59:37;97899.47;;;15.10;85.44
64876;BME280;51369;49.862;9.908;2022-09-09T05:02:05;97897.75;;;15.09;85.84
64876;BME280;51369;49.862;9.908;2022-09-09T05:04:31;97896.97;;;15.07;85.45
64876;BME280;51369;49.862;9.908;2022-09-09T05:06:58;97897.84;;;15.07;85.80
64876;BME280;51369;49.862;9.908;2022-09-09T05:09:24;97906.00;;;15.07;85.88
64876;BME280;51369;49.862;9.908;2022-09-09T05:11:51;97910.56;;;15.07;85.61
64876;BME280;51369;49.862;9.908;2022-09-09T05:14:25;97906.97;;;15.06;85.57
64876;BME280;51369;49.862;9.908;2022-09-09T05:16:50;97906.00;;;15.07;85.67
64876;BME280;51369;49.862;9.908;2022-09-09T05:19:16;97899.59;;;15.08;85.57
64876;BME280;51369;49.862;9.908;2022-09-09T05:21:47;97907.66;;;15.10;85.51
64876;BME280;51369;49.862;9.908;2022-09-09T05:24:16;97904.81;;;15.11;86.05
64876;BME280;51369;49.862;9.908;2022-09-09T05:26:43;97915.59;;;15.13;86.09
64876;BME280;51369;49.862;9.908;2022-09-09T05:29:09;97930.94;;;15.14;86.03
64876;BME280;51369;49.862;9.908;2022-09-09T05:31:35;97928.09;;;15.15;85.73
64876;BME280;51369;49.862;9.908;2022-09-09T05:34:03;97929.63;;;15.19;85.87
64876;BME280;51369;49.862;9.908;2022-09-09T05:36:29;97924.88;;;15.23;86.11
64876;BME280;51369;49.862;9.908;2022-09-09T05:38:55;97925.53;;;15.26;86.37
64876;BME280;51369;49.862;9.908;2022-09-09T05:41:21;97924.34;;;15.30;86.89
64876;BME280;51369;49.862;9.908;2022-09-09T05:43:49;97931.31;;;15.35;86.56
64876;BME280;51369;49.862;9.908;2022-09-09T05:46:23;97939.91;;;15.41;86.92
64876;BME280;51369;49.862;9.908;2022-09-09T05:48:51;97937.75;;;15.46;87.15
64876;BME280;51369;49.862;9.908;2022-09-09T05:51:21;97933.63;;;15.53;87.11
64876;BME280;51369;49.862;9.908;2022-09-09T05:53:48;97938.53;;;15.61;87.04
64876;BME280;51369;49.862;9.908;2022-09-09T05:56:19;97930.81;;;15.68;86.48
64876;BME280;51369;49.862;9.908;2022-09-09T05:58:47;97935.81;;;15.74;85.90
64876;BME280;51369;49.862;9.908;2022-09-09T06:01:19;97934.50;;;15.79;86.27
64876;BME280;51369;49.862;9.908;2022-09-09T06:03:46;97944.84;;;15.87;86.56
64876;BME280;51369;49.862;9.908;2022-09-09T06:06:18;97948.13;;;15.92;85.64
64876;BME280;51369;49.862;9.908;2022-09-09T06:08:47;97936.91;;;15.97;85.46
64876;BME280;51369;49.862;9.908;2022-09-09T06:11:17;97948.34;;;16.02;85.87
64876;BME280;51369;49.862;9.908;2022-09-09T06:13:43;97949.97;;;16.04;84.41
64876;BME280;51369;49.862;9.908;2022-09-09T06:16:10;97939.75;;;16.08;84.07
64876;BME280;51369;49.862;9.908;2022-09-09T06:18:38;97947.56;;;16.12;83.89
64876;BME280;51369;49.862;9.908;2022-09-09T06:21:06;97948.34;;;16.14;83.70
64876;BME280;51369;49.862;9.908;2022-09-09T06:23:33;97950.84;;;16.17;83.32
64876;BME280;51369;49.862;9.908;2022-09-09T06:26:05;97954.31;;;16.19;82.75
64876;BME280;51369;49.862;9.908;2022-09-09T06:28:33;97956.72;;;16.24;83.45
64876;BME280;51369;49.862;9.908;2022-09-09T06:31:00;97951.16;;;16.25;83.05
64876;BME280;51369;49.862;9.908;2022-09-09T06:33:31;97948.44;;;16.25;83.36
64876;BME280;51369;49.862;9.908;2022-09-09T06:35:57;97947.34;;;16.28;82.77
64876;BME280;51369;49.862;9.908;2022-09-09T06:38:22;97948.84;;;16.32;82.61
64876;BME280;51369;49.862;9.908;2022-09-09T06:40:53;97950.38;;;16.36;82.56
64876;BME280;51369;49.862;9.908;2022-09-09T06:43:20;97948.06;;;16.43;82.23
64876;BME280;51369;49.862;9.908;2022-09-09T06:45:56;97956.03;;;16.46;82.40
64876;BME280;51369;49.862;9.908;2022-09-09T06:48:22;97959.41;;;16.49;82.08
64876;BME280;51369;49.862;9.908;2022-09-09T06:50:48;97952.97;;;16.50;81.86
64876;BME280;51369;49.862;9.908;2022-09-09T06:53:18;97963.66;;;16.53;82.02
64876;BME280;51369;49.862;9.908;2022-09-09T06:55:46;97956.88;;;16.59;82.71
64876;BME280;51369;49.862;9.908;2022-09-09T06:58:13;97965.81;;;16.61;82.09
64876;BME280;51369;49.862;9.908;2022-09-09T07:00:38;97962.84;;;16.64;82.07
64876;BME280;51369;49.862;9.908;2022-09-09T07:03:04;97958.94;;;16.68;81.80
64876;BME280;51369;49.862;9.908;2022-09-09T07:05:31;97955.78;;;16.74;81.65
64876;BME280;51369;49.862;9.908;2022-09-09T07:07:57;97967.09;;;16.81;81.64
64876;BME280;51369;49.862;9.908;2022-09-09T07:10:23;97955.72;;;16.87;80.90
64876;BME280;51369;49.862;9.908;2022-09-09T07:12:52;97946.22;;;16.92;80.91
64876;BME280;51369;49.862;9.908;2022-09-09T07:15:23;97951.72;;;17.04;80.29
64876;BME280;51369;49.862;9.908;2022-09-09T07:17:50;97962.59;;;17.16;79.58
64876;BME280;51369;49.862;9.908;2022-09-09T07:20:18;97956.09;;;17.30;79.06
64876;BME280;51369;49.862;9.908;2022-09-09T07:22:45;97949.28;;;17.47;78.63
64876;BME280;51369;49.862;9.908;2022-09-09T07:25:10;97953.69;;;17.61;76.83
64876;BME280;51369;49.862;9.908;2022-09-09T07:27:36;97952.50;;;17.76;77.10
64876;BME280;51369;49.862;9.908;2022-09-09T07:30:03;97951.44;;;17.89;78.01
64876;BME280;51369;49.862;9.908;2022-09-09T07:32:31;97960.50;;;18.01;77.82
64876;BME280;51369;49.862;9.908;2022-09-09T07:34:57;97955.31;;;18.09;75.47
64876;BME280;51369;49.862;9.908;2022-09-09T07:37:25;97953.59;;;18.19;75.55
64876;BME280;51369;49.862;9.908;2022-09-09T07:39:51;97955.69;;;18.27;74.23
64876;BME280;51369;49.862;9.908;2022-09-09T07:42:17;97959.69;;;18.34;74.40
64876;BME280;51369;49.862;9.908;2022-09-09T07:44:42;97951.84;;;18.41;74.75
64876;BME280;51369;49.862;9.908;2022-09-09T07:47:11;97958.56;;;18.48;74.57
64876;BME280;51369;49.862;9.908;2022-09-09T07:49:43;97960.41;;;18.59;74.89
64876;BME280;51369;49.862;9.908;2022-09-09T07:52:08;97963.69;;;18.64;74.25
64876;BME280;51369;49.862;9.908;2022-09-09T07:54:36;97962.56;;;18.66;73.11
64876;BME280;51369;49.862;9.908;2022-09-09T07:57:04;97956.59;;;18.72;70.41
64876;BME280;51369;49.862;9.908;2022-09-09T07:59:31;97956.56;;;18.83;69.80
64876;BME280;51369;49.862;9.908;2022-09-09T08:01:57;97953.56;;;18.98;71.11
64876;BME280;51369;49.862;9.908;2022-09-09T08:04:26;97956.84;;;19.12;70.92
64876;BME280;51369;49.862;9.908;2022-09-09T08:06:59;97964.63;;;19.28;69.70
64876;BME280;51369;49.862;9.908;2022-09-09T08:09:27;97970.69;;;19.43;69.51
64876;BME280;51369;49.862;9.908;2022-09-09T08:11:59;97976.75;;;19.58;69.83
64876;BME280;51369;49.862;9.908;2022-09-09T08:14:25;97972.81;;;19.71;68.58
64876;BME280;51369;49.862;9.908;2022-09-09T08:16:51;97967.75;;;19.88;67.57
64876;BME280;51369;49.862;9.908;2022-09-09T08:19:21;97970.03;;;20.03;68.70
64876;BME280;51369;49.862;9.908;2022-09-09T08:21:46;97974.28;;;20.17;68.10
64876;BME280;51369;49.862;9.908;2022-09-09T08:24:14;97974.09;;;20.30;67.38
64876;BME280;51369;49.862;9.908;2022-09-09T08:26:44;97977.63;;;20.41;66.50
64876;BME280;51369;49.862;9.908;2022-09-09T08:29:12;97981.44;;;20.50;65.87
64876;BME280;51369;49.862;9.908;2022-09-09T08:31:47;97977.00;;;20.59;65.92
64876;BME280;51369;49.862;9.908;2022-09-09T08:34:13;97971.84;;;20.65;65.85
64876;BME280;51369;49.862;9.908;2022-09-09T08:36:41;97981.25;;;20.72;65.79
64876;BME280;51369;49.862;9.908;2022-09-09T08:39:10;97964.38;;;20.77;64.83
64876;BME280;51369;49.862;9.908;2022-09-09T08:42:17;97981.69;;;20.77;63.70
64876;BME280;51369;49.862;9.908;2022-09-09T08:50:30;97981.56;;;20.79;64.22
64876;BME280;51369;49.862;9.908;2022-09-09T08:53:17;97986.19;;;20.78;63.75
64876;BME280;51369;49.862;9.908;2022-09-09T08:55:59;97981.13;;;20.84;63.15
64876;BME280;51369;49.862;9.908;2022-09-09T08:58:43;97984.03;;;20.92;62.30
64876;BME280;51369;49.862;9.908;2022-09-09T09:01:22;97987.94;;;20.99;62.95
64876;BME280;51369;49.862;9.908;2022-09-09T09:04:05;97996.34;;;21.07;62.68
64876;BME280;51369;49.862;9.908;2022-09-09T09:12:20;97980.69;;;21.38;62.58
64876;BME280;51369;49.862;9.908;2022-09-09T09:14:48;97979.53;;;21.40;62.12
64876;BME280;51369;49.862;9.908;2022-09-09T09:17:23;97978.97;;;21.37;61.93
64876;BME280;51369;49.862;9.908;2022-09-09T09:19:50;97983.88;;;21.43;61.70
64876;BME280;51369;49.862;9.908;2022-09-09T09:25:03;97978.97;;;21.56;61.66
64876;BME280;51369;49.862;9.908;2022-09-09T09:30:42;97980.16;;;21.73;60.60
64876;BME280;51369;49.862;9.908;2022-09-09T09:33:22;97983.75;;;21.73;60.89
64876;BME280;51369;49.862;9.908;2022-09-09T09:35:50;97963.22;;;21.77;60.74
64876;BME280;51369;49.862;9.908;2022-09-09T09:38:19;97969.28;;;21.81;60.54
64876;BME280;51369;49.862;9.908;2022-09-09T09:40:51;97965.81;;;21.89;61.11
64876;BME280;51369;49.862;9.908;2022-09-09T09:43:23;97963.78;;;22.00;61.46
64876;BME280;51369;49.862;9.908;2022-09-09T09:45:51;97964.81;;;22.09;60.60
64876;BME280;51369;49.862;9.908;2022-09-09T09:48:17;97965.25;;;22.14;59.96
64876;BME280;51369;49.862;9.908;2022-09-09T09:50:52;97960.03;;;22.11;59.07
64876;BME280;51369;49.862;9.908;2022-09-09T09:53:22;97960.63;;;22.05;58.98
64876;BME280;51369;49.862;9.908;2022-09-09T09:55:55;97954.25;;;22.04;59.13
64876;BME280;51369;49.862;9.908;2022-09-09T09:58:22;97944.84;;;22.07;58.96
64876;BME280;51369;49.862;9.908;2022-09-09T10:00:50;97950.31;;;22.17;59.31
64876;BME280;51369;49.862;9.908;2022-09-09T10:03:25;97945.53;;;22.28;59.00
64876;BME280;51369;49.862;9.908;2022-09-09T10:05:53;97949.81;;;22.40;58.53
64876;BME280;51369;49.862;9.908;2022-09-09T10:08:19;97955.28;;;22.50;57.59
64876;BME280;51369;49.862;9.908;2022-09-09T10:19:15;97956.16;;;22.88;57.06
64876;BME280;51369;49.862;9.908;2022-09-09T10:27:15;97942.28;;;22.80;55.27
64876;BME280;51369;49.862;9.908;2022-09-09T10:30:09;97944.47;;;22.66;55.09
64876;BME280;51369;49.862;9.908;2022-09-09T10:38:12;97961.50;;;22.05;56.43
64876;BME280;51369;49.862;9.908;2022-09-09T10:48:30;98024.69;;;21.17;61.12
64876;BME280;51369;49.862;9.908;2022-09-09T10:51:08;98026.47;;;20.88;62.74
64876;BME280;51369;49.862;9.908;2022-09-09T10:53:57;98033.88;;;20.57;64.63
64876;BME280;51369;49.862;9.908;2022-09-09T10:56:28;98039.88;;;20.30;64.85
64876;BME280;51369;49.862;9.908;2022-09-09T10:59:05;98052.91;;;19.96;65.32
64876;BME280;51369;49.862;9.908;2022-09-09T11:01:38;98043.44;;;19.68;66.91
64876;BME280;51369;49.862;9.908;2022-09-09T11:04:24;98032.53;;;19.34;68.38
64876;BME280;51369;49.862;9.908;2022-09-09T11:06:55;98036.06;;;19.14;68.26
64876;BME280;51369;49.862;9.908;2022-09-09T11:09:28;98026.69;;;18.96;69.14
64876;BME280;51369;49.862;9.908;2022-09-09T11:11:57;98016.72;;;18.95;70.22
64876;BME280;51369;49.862;9.908;2022-09-09T11:14:41;98014.69;;;19.08;70.82
64876;BME280;51369;49.862;9.908;2022-09-09T11:17:15;98010.69;;;19.23;69.54
64876;BME280;51369;49.862;9.908;2022-09-09T11:19:43;98002.09;;;19.28;67.15
64876;BME280;51369;49.862;9.908;2022-09-09T11:22:34;97989.13;;;19.30;67.94
64876;BME280;51369;49.862;9.908;2022-09-09T11:25:14;97998.44;;;19.38;67.73
64876;BME280;51369;49.862;9.908;2022-09-09T11:27:58;97990.81;;;19.53;69.31
64876;BME280;51369;49.862;9.908;2022-09-09T11:33:41;97979.56;;;20.30;70.01
64876;BME280;51369;49.862;9.908;2022-09-09T11:36:38;97982.13;;;20.73;68.86
64876;BME280;51369;49.862;9.908;2022-09-09T11:41:41;97983.75;;;21.54;65.95
64876;BME280;51369;49.862;9.908;2022-09-09T11:44:11;97971.16;;;21.90;64.73
64876;BME280;51369;49.862;9.908;2022-09-09T11:46:39;97964.06;;;22.26;64.53
64876;BME280;51369;49.862;9.908;2022-09-09T11:49:29;97969.41;;;22.65;61.80
64876;BME280;51369;49.862;9.908;2022-09-09T11:52:36;97962.72;;;23.04;61.40
64876;BME280;51369;49.862;9.908;2022-09-09T11:57:57;97966.38;;;23.68;59.19
64876;BME280;51369;49.862;9.908;2022-09-09T12:00:35;97955.97;;;23.97;58.82
64876;BME280;51369;49.862;9.908;2022-09-09T12:03:03;97961.50;;;24.23;57.57
64876;BME280;51369;49.862;9.908;2022-09-09T12:05:44;97967.41;;;24.54;56.68
64876;BME280;51369;49.862;9.908;2022-09-09T12:08:15;97953.75;;;24.79;55.12
64876;BME280;51369;49.862;9.908;2022-09-09T12:10:56;97951.13;;;25.03;55.31
64876;BME280;51369;49.862;9.908;2022-09-09T12:13:25;97951.56;;;25.33;54.47
64876;BME280;51369;49.862;9.908;2022-09-09T12:15:55;97950.94;;;25.55;54.67
64876;BME280;51369;49.862;9.908;2022-09-09T12:18:39;97948.94;;;25.73;52.41
64876;BME280;51369;49.862;9.908;2022-09-09T12:21:33;97948.41;;;25.70;51.51
64876;BME280;51369;49.862;9.908;2022-09-09T12:24:09;97942.66;;;25.55;51.29
64876;BME280;51369;49.862;9.908;2022-09-09T12:27:02;97946.75;;;25.35;52.09
64876;BME280;51369;49.862;9.908;2022-09-09T12:29:53;97937.41;;;25.27;51.85
64876;BME280;51369;49.862;9.908;2022-09-09T12:32:24;97936.91;;;25.32;52.36
64876;BME280;51369;49.862;9.908;2022-09-09T12:34:55;97934.47;;;25.29;52.54
64876;BME280;51369;49.862;9.908;2022-09-09T12:37:38;97937.41;;;25.27;53.35
64876;BME280;51369;49.862;9.908;2022-09-09T12:42:43;97933.13;;;25.49;52.95
64876;BME280;51369;49.862;9.908;2022-09-09T12:52:44;97923.31;;;26.36;50.18
64876;BME280;51369;49.862;9.908;2022-09-09T12:55:21;97920.66;;;26.59;49.53
64876;BME280;51369;49.862;9.908;2022-09-09T12:57:50;97911.09;;;26.78;48.81
64876;BME280;51369;49.862;9.908;2022-09-09T13:02:48;97910.16;;;26.94;46.63
64876;BME280;51369;49.862;9.908;2022-09-09T13:05:20;97909.19;;;26.78;46.33
64876;BME280;51369;49.862;9.908;2022-09-09T13:07:46;97903.38;;;26.57;46.87
64876;BME280;51369;49.862;9.908;2022-09-09T13:10:14;97908.63;;;26.36;48.09
64876;BME280;51369;49.862;9.908;2022-09-09T13:12:41;97908.97;;;26.16;47.54
64876;BME280;51369;49.862;9.908;2022-09-09T13:15:21;97901.91;;;25.98;48.04
64876;BME280;51369;49.862;9.908;2022-09-09T13:18:12;97898.28;;;25.89;47.25
64876;BME280;51369;49.862;9.908;2022-09-09T13:20:38;97901.22;;;25.79;47.00
64876;BME280;51369;49.862;9.908;2022-09-09T13:23:05;97898.44;;;25.63;47.58
64876;BME280;51369;49.862;9.908;2022-09-09T13:25:30;97903.06;;;25.46;48.34
64876;BME280;51369;49.862;9.908;2022-09-09T13:30:32;97893.50;;;25.16;47.74
64876;BME280;51369;49.862;9.908;2022-09-09T13:35:27;97886.06;;;25.09;49.48
64876;BME280;51369;49.862;9.908;2022-09-09T13:37:53;97889.53;;;25.11;48.44
64876;BME280;51369;49.862;9.908;2022-09-09T13:40:21;97884.03;;;25.19;48.14
64876;BME280;51369;49.862;9.908;2022-09-09T13:42:55;97874.38;;;25.39;47.59
64876;BME280;51369;49.862;9.908;2022-09-09T13:45:22;97874.44;;;25.72;47.67
64876;BME280;51369;49.862;9.908;2022-09-09T13:47:53;97883.19;;;26.16;48.41
64876;BME280;51369;49.862;9.908;2022-09-09T13:50:26;97884.22;;;26.39;46.86
64876;BME280;51369;49.862;9.908;2022-09-09T13:52:53;97888.34;;;26.51;46.03
64876;BME280;51369;49.862;9.908;2022-09-09T13:55:19;97884.16;;;26.55;45.68
64876;BME280;51369;49.862;9.908;2022-09-09T13:58:03;97886.25;;;26.53;44.10
64876;BME280;51369;49.862;9.908;2022-09-09T14:00:32;97890.91;;;26.61;45.66
64876;BME280;51369;49.862;9.908;2022-09-09T14:02:57;97878.25;;;26.67;44.48
64876;BME280;51369;49.862;9.908;2022-09-09T14:05:25;97876.88;;;26.63;45.41
64876;BME280;51369;49.862;9.908;2022-09-09T14:07:51;97882.97;;;26.50;44.67
64876;BME280;51369;49.862;9.908;2022-09-09T14:10:16;97881.81;;;26.36;44.43
64876;BME280;51369;49.862;9.908;2022-09-09T14:12:42;97883.00;;;26.25;44.24
64876;BME280;51369;49.862;9.908;2022-09-09T14:15:10;97877.66;;;26.16;45.03
64876;BME280;51369;49.862;9.908;2022-09-09T14:17:36;97877.31;;;26.03;44.70
64876;BME280;51369;49.862;9.908;2022-09-09T14:20:06;97883.44;;;25.90;44.47
64876;BME280;51369;49.862;9.908;2022-09-09T14:22:35;97879.97;;;25.80;44.89
64876;BME280;51369;49.862;9.908;2022-09-09T14:25:02;97887.06;;;25.66;45.02
64876;BME280;51369;49.862;9.908;2022-09-09T14:27:28;97874.41;;;25.47;44.51
64876;BME280;51369;49.862;9.908;2022-09-09T14:29:55;97883.19;;;25.26;44.91
64876;BME280;51369;49.862;9.908;2022-09-09T14:32:20;97883.63;;;25.06;45.03
64876;BME280;51369;49.862;9.908;2022-09-09T14:34:46;97880.44;;;24.84;46.00
64876;BME280;51369;49.862;9.908;2022-09-09T14:37:15;97880.88;;;24.63;46.28
64876;BME280;51369;49.862;9.908;2022-09-09T14:39:41;97887.13;;;24.40;46.20
64876;BME280;51369;49.862;9.908;2022-09-09T14:42:09;97893.75;;;24.21;47.55
64876;BME280;51369;49.862;9.908;2022-09-09T14:44:36;97912.22;;;24.02;51.25
64876;BME280;51369;49.862;9.908;2022-09-09T14:47:04;97908.56;;;23.76;51.58
64876;BME280;51369;49.862;9.908;2022-09-09T14:49:30;97900.84;;;23.44;49.77
64876;BME280;51369;49.862;9.908;2022-09-09T14:51:55;97917.75;;;23.14;50.08
64876;BME280;51369;49.862;9.908;2022-09-09T14:54:20;97921.47;;;22.95;51.16